sensor_id;sensor_type;location;lat;lon;timestamp;P1;durP1;ratioP1;P2;durP2;ratioP2
46607;SDS011;32330;51.936;7.184;2023-02-28T04:51:10;5.82;;;3.33;;
46607;SDS011;32330;51.936;7.184;2023-02-28T04:53:39;7.43;;;3.47;;
46607;SDS011;32330;51.936;7.184;2023-02-28T04:56:08;4.60;;;2.90;;
46607;SDS011;32330;51.936;7.184;2023-02-28T04:58:37;6.18;;;3.47;;
46607;SDS011;32330;51.936;7.184;2023-02-28T05:01:05;5.97;;;3.60;;
46607;SDS011;32330;51.936;7.184;2023-02-28T05:03:38;6.82;;;3.63;;
46607;SDS011;32330;51.936;7.184;2023-02-28T05:06:05;5.40;;;3.67;;
46607;SDS011;32330;51.936;7.184;2023-02-28T05:08:34;5.30;;;3.35;;
46607;SDS011;32330;51.936;7.184;2023-02-28T05:11:01;8.18;;;4.07;;
46607;SDS011;32330;51.936;7.184;2023-02-28T05:13:29;7.78;;;5.65;;
46607;SDS011;32330;51.936;7.184;2023-02-28T05:15:56;6.70;;;3.53;;
46607;SDS011;32330;51.936;7.184;2023-02-28T05:18:23;5.68;;;3.97;;
46607;SDS011;32330;51.936;7.184;2023-02-28T05:20:50;6.57;;;3.50;;
46607;SDS011;32330;51.936;7.184;2023-02-28T05:23:17;5.32;;;3.17;;
46607;SDS011;32330;51.936;7.184;2023-02-28T05:25:49;4.93;;;3.80;;
46607;SDS011;32330;51.936;7.184;2023-02-28T05:28:17;4.65;;;3.60;;
46607;SDS011;32330;51.936;7.184;2023-02-28T05:30:44;8.98;;;3.42;;
46607;SDS011;32330;51.936;7.184;2023-02-28T05:33:11;7.15;;;3.70;;
46607;SDS011;32330;51.936;7.184;2023-02-28T05:35:38;5.05;;;3.83;;
46607;SDS011;32330;51.936;7.184;2023-02-28T05:38:06;5.45;;;4.00;;
46607;SDS011;32330;51.936;7.184;2023-02-28T05:40:33;6.03;;;4.45;;
46607;SDS011;32330;51.936;7.184;2023-02-28T05:43:01;8.52;;;4.40;;
46607;SDS011;32330;51.936;7.184;2023-02-28T05:45:28;6.57;;;3.95;;
46607;SDS011;32330;51.936;7.184;2023-02-28T05:47:55;7.63;;;4.35;;
46607;SDS011;32330;51.936;7.184;2023-02-28T05:50:22;7.03;;;4.55;;
46607;SDS011;32330;51.936;7.184;2023-02-28T05:52:49;6.03;;;4.05;;
46607;SDS011;32330;51.936;7.184;2023-02-28T05:55:16;5.88;;;4.15;;
46607;SDS011;32330;51.936;7.184;2023-02-28T05:57:43;5.85;;;3.67;;
46607;SDS011;32330;51.936;7.184;2023-02-28T06:00:15;4.38;;;3.33;;
46607;SDS011;32330;51.936;7.184;2023-02-28T06:02:43;5.25;;;3.58;;
46607;SDS011;32330;51.936;7.184;2023-02-28T06:05:13;6.47;;;3.55;;
46607;SDS011;32330;51.936;7.184;2023-02-28T06:07:40;6.35;;;3.90;;
46607;SDS011;32330;51.936;7.184;2023-02-28T06:10:08;6.75;;;3.85;;
46607;SDS011;32330;51.936;7.184;2023-02-28T06:12:36;4.65;;;3.60;;
46607;SDS011;32330;51.936;7.184;2023-02-28T06:15:03;5.72;;;3.88;;
46607;SDS011;32330;51.936;7.184;2023-02-28T06:17:32;5.72;;;4.00;;
46607;SDS011;32330;51.936;7.184;2023-02-28T06:19:59;5.90;;;3.65;;
46607;SDS011;32330;51.936;7.184;2023-02-28T06:22:26;6.13;;;4.10;;
46607;SDS011;32330;51.936;7.184;2023-02-28T06:24:53;8.00;;;4.25;;
46607;SDS011;32330;51.936;7.184;2023-02-28T06:27:22;4.95;;;4.05;;
46607;SDS011;32330;51.936;7.184;2023-02-28T06:29:49;6.20;;;3.85;;
46607;SDS011;32330;51.936;7.184;2023-02-28T06:34:48;4.80;;;3.92;;
46607;SDS011;32330;51.936;7.184;2023-02-28T06:37:16;8.57;;;4.05;;
46607;SDS011;32330;51.936;7.184;2023-02-28T06:39:43;5.13;;;3.92;;
46607;SDS011;32330;51.936;7.184;2023-02-28T06:42:10;8.07;;;4.07;;
46607;SDS011;32330;51.936;7.184;2023-02-28T06:44:38;5.50;;;3.85;;
46607;SDS011;32330;51.936;7.184;2023-02-28T06:47:05;5.97;;;3.50;;
46607;SDS011;32330;51.936;7.184;2023-02-28T06:49:33;6.30;;;3.65;;
46607;SDS011;32330;51.936;7.184;2023-02-28T06:52:03;4.88;;;3.50;;
46607;SDS011;32330;51.936;7.184;2023-02-28T06:54:30;4.88;;;3.65;;
46607;SDS011;32330;51.936;7.184;2023-02-28T06:56:57;5.72;;;3.67;;
46607;SDS011;32330;51.936;7.184;2023-02-28T06:59:24;6.07;;;3.50;;
46607;SDS011;32330;51.936;7.184;2023-02-28T07:01:51;3.40;;;2.75;;
46607;SDS011;32330;51.936;7.184;2023-02-28T07:04:20;5.72;;;3.67;;
46607;SDS011;32330;51.936;7.184;2023-02-28T07:06:47;4.40;;;3.25;;
46607;SDS011;32330;51.936;7.184;2023-02-28T07:09:15;7.28;;;3.60;;
46607;SDS011;32330;51.936;7.184;2023-02-28T07:11:44;8.55;;;3.95;;
46607;SDS011;32330;51.936;7.184;2023-02-28T07:14:11;6.75;;;4.18;;
46607;SDS011;32330;51.936;7.184;2023-02-28T07:16:38;5.75;;;4.38;;
46607;SDS011;32330;51.936;7.184;2023-02-28T07:19:05;6.88;;;5.38;;
46607;SDS011;32330;51.936;7.184;2023-02-28T07:21:32;7.40;;;4.50;;
46607;SDS011;32330;51.936;7.184;2023-02-28T07:23:59;7.82;;;4.40;;
46607;SDS011;32330;51.936;7.184;2023-02-28T07:26:27;8.90;;;5.38;;
46607;SDS011;32330;51.936;7.184;2023-02-28T07:28:54;7.78;;;5.03;;
46607;SDS011;32330;51.936;7.184;2023-02-28T07:31:21;7.93;;;5.30;;
46607;SDS011;32330;51.936;7.184;2023-02-28T07:33:48;9.25;;;5.53;;
46607;SDS011;32330;51.936;7.184;2023-02-28T07:36:16;9.63;;;5.45;;
46607;SDS011;32330;51.936;7.184;2023-02-28T07:41:53;9.32;;;5.63;;
46607;SDS011;32330;51.936;7.184;2023-02-28T07:44:38;6.32;;;4.78;;
46607;SDS011;32330;51.936;7.184;2023-02-28T07:47:10;8.05;;;4.38;;
46607;SDS011;32330;51.936;7.184;2023-02-28T07:49:52;4.90;;;3.20;;
46607;SDS011;32330;51.936;7.184;2023-02-28T07:52:19;4.82;;;2.90;;
46607;SDS011;32330;51.936;7.184;2023-02-28T07:54:46;5.80;;;3.53;;
46607;SDS011;32330;51.936;7.184;2023-02-28T07:57:14;5.43;;;3.13;;
46607;SDS011;32330;51.936;7.184;2023-02-28T07:59:42;5.20;;;3.05;;
46607;SDS011;32330;51.936;7.184;2023-02-28T08:02:09;4.75;;;2.70;;
46607;SDS011;32330;51.936;7.184;2023-02-28T08:04:38;5.75;;;2.85;;
46607;SDS011;32330;51.936;7.184;2023-02-28T08:07:05;4.95;;;2.60;;
46607;SDS011;32330;51.936;7.184;2023-02-28T08:09:32;5.30;;;2.78;;
46607;SDS011;32330;51.936;7.184;2023-02-28T08:12:00;4.15;;;2.88;;
46607;SDS011;32330;51.936;7.184;2023-02-28T08:14:28;3.95;;;2.95;;
46607;SDS011;32330;51.936;7.184;2023-02-28T08:16:55;5.13;;;2.42;;
46607;SDS011;32330;51.936;7.184;2023-02-28T08:19:22;4.25;;;2.15;;
46607;SDS011;32330;51.936;7.184;2023-02-28T08:21:49;4.63;;;2.60;;
46607;SDS011;32330;51.936;7.184;2023-02-28T08:24:16;4.07;;;2.60;;
46607;SDS011;32330;51.936;7.184;2023-02-28T08:26:43;5.78;;;3.45;;
46607;SDS011;32330;51.936;7.184;2023-02-28T08:29:10;4.72;;;3.30;;
46607;SDS011;32330;51.936;7.184;2023-02-28T08:31:39;7.13;;;2.90;;
46607;SDS011;32330;51.936;7.184;2023-02-28T08:34:06;4.75;;;3.60;;
46607;SDS011;32330;51.936;7.184;2023-02-28T08:36:33;4.38;;;2.75;;
46607;SDS011;32330;51.936;7.184;2023-02-28T08:39:00;5.47;;;3.38;;
46607;SDS011;32330;51.936;7.184;2023-02-28T08:41:28;5.43;;;3.70;;
46607;SDS011;32330;51.936;7.184;2023-02-28T08:43:55;6.22;;;3.70;;
46607;SDS011;32330;51.936;7.184;2023-02-28T08:46:22;5.03;;;3.47;;
46607;SDS011;32330;51.936;7.184;2023-02-28T08:48:52;5.95;;;3.67;;
46607;SDS011;32330;51.936;7.184;2023-02-28T08:51:20;9.13;;;4.43;;
46607;SDS011;32330;51.936;7.184;2023-02-28T08:53:51;7.93;;;4.18;;
46607;SDS011;32330;51.936;7.184;2023-02-28T08:56:19;12.48;;;5.47;;
46607;SDS011;32330;51.936;7.184;2023-02-28T08:58:47;13.23;;;6.90;;
46607;SDS011;32330;51.936;7.184;2023-02-28T09:01:15;10.80;;;5.78;;
46607;SDS011;32330;51.936;7.184;2023-02-28T09:03:44;10.48;;;6.28;;
46607;SDS011;32330;51.936;7.184;2023-02-28T09:06:14;14.48;;;6.85;;
46607;SDS011;32330;51.936;7.184;2023-02-28T09:08:42;14.55;;;6.63;;
46607;SDS011;32330;51.936;7.184;2023-02-28T09:11:10;12.38;;;6.65;;
46607;SDS011;32330;51.936;7.184;2023-02-28T09:13:37;10.90;;;5.75;;
46607;SDS011;32330;51.936;7.184;2023-02-28T09:16:05;11.02;;;6.30;;
46607;SDS011;32330;51.936;7.184;2023-02-28T09:18:34;10.10;;;5.38;;
46607;SDS011;32330;51.936;7.184;2023-02-28T09:21:03;8.50;;;4.70;;
46607;SDS011;32330;51.936;7.184;2023-02-28T09:23:32;7.85;;;3.92;;
46607;SDS011;32330;51.936;7.184;2023-02-28T09:25:59;4.40;;;2.20;;
46607;SDS011;32330;51.936;7.184;2023-02-28T09:28:26;4.07;;;2.42;;
46607;SDS011;32330;51.936;7.184;2023-02-28T09:30:53;6.18;;;1.75;;
46607;SDS011;32330;51.936;7.184;2023-02-28T09:33:22;5.15;;;2.22;;
46607;SDS011;32330;51.936;7.184;2023-02-28T09:35:50;3.72;;;1.48;;
46607;SDS011;32330;51.936;7.184;2023-02-28T09:38:23;2.38;;;1.42;;
46607;SDS011;32330;51.936;7.184;2023-02-28T09:40:52;1.63;;;0.90;;
46607;SDS011;32330;51.936;7.184;2023-02-28T09:43:22;1.88;;;1.00;;
46607;SDS011;32330;51.936;7.184;2023-02-28T09:45:52;1.48;;;0.98;;
46607;SDS011;32330;51.936;7.184;2023-02-28T09:48:27;4.50;;;1.23;;
46607;SDS011;32330;51.936;7.184;2023-02-28T09:51:00;2.47;;;1.10;;
46607;SDS011;32330;51.936;7.184;2023-02-28T09:53:31;1.75;;;0.80;;
46607;SDS011;32330;51.936;7.184;2023-02-28T09:56:02;2.70;;;1.10;;
46607;SDS011;32330;51.936;7.184;2023-02-28T09:58:34;1.40;;;0.80;;
46607;SDS011;32330;51.936;7.184;2023-02-28T10:01:09;1.73;;;1.00;;
46607;SDS011;32330;51.936;7.184;2023-02-28T10:03:46;1.73;;;0.93;;
46607;SDS011;32330;51.936;7.184;2023-02-28T10:06:23;1.85;;;1.08;;
46607;SDS011;32330;51.936;7.184;2023-02-28T10:08:56;4.07;;;1.25;;
46607;SDS011;32330;51.936;7.184;2023-02-28T10:11:29;3.33;;;1.15;;
46607;SDS011;32330;51.936;7.184;2023-02-28T10:14:01;2.22;;;1.00;;
46607;SDS011;32330;51.936;7.184;2023-02-28T10:16:32;4.40;;;1.30;;
46607;SDS011;32330;51.936;7.184;2023-02-28T10:19:03;3.43;;;1.33;;
46607;SDS011;32330;51.936;7.184;2023-02-28T10:21:33;2.45;;;1.35;;
46607;SDS011;32330;51.936;7.184;2023-02-28T10:24:04;4.00;;;1.88;;
46607;SDS011;32330;51.936;7.184;2023-02-28T10:26:41;3.60;;;1.70;;
46607;SDS011;32330;51.936;7.184;2023-02-28T10:29:11;3.40;;;1.90;;
46607;SDS011;32330;51.936;7.184;2023-02-28T10:31:39;3.35;;;1.63;;
46607;SDS011;32330;51.936;7.184;2023-02-28T10:34:07;3.75;;;1.58;;
46607;SDS011;32330;51.936;7.184;2023-02-28T10:36:37;3.67;;;1.80;;
46607;SDS011;32330;51.936;7.184;2023-02-28T10:42:04;3.15;;;1.65;;
46607;SDS011;32330;51.936;7.184;2023-02-28T10:44:31;3.42;;;1.60;;
46607;SDS011;32330;51.936;7.184;2023-02-28T10:46:58;3.35;;;1.58;;
46607;SDS011;32330;51.936;7.184;2023-02-28T10:49:27;3.78;;;1.67;;
46607;SDS011;32330;51.936;7.184;2023-02-28T10:51:55;3.72;;;1.80;;
46607;SDS011;32330;51.936;7.184;2023-02-28T10:54:24;2.40;;;1.30;;
46607;SDS011;32330;51.936;7.184;2023-02-28T10:57:06;4.05;;;1.67;;
46607;SDS011;32330;51.936;7.184;2023-02-28T10:59:43;3.55;;;1.70;;
46607;SDS011;32330;51.936;7.184;2023-02-28T11:02:29;2.20;;;1.15;;
46607;SDS011;32330;51.936;7.184;2023-02-28T11:04:59;4.50;;;1.15;;
46607;SDS011;32330;51.936;7.184;2023-02-28T11:07:26;3.85;;;1.38;;
46607;SDS011;32330;51.936;7.184;2023-02-28T11:09:54;1.77;;;1.00;;
46607;SDS011;32330;51.936;7.184;2023-02-28T11:12:25;1.92;;;1.17;;
46607;SDS011;32330;51.936;7.184;2023-02-28T11:14:55;1.98;;;1.20;;
46607;SDS011;32330;51.936;7.184;2023-02-28T11:17:24;1.27;;;0.88;;
46607;SDS011;32330;51.936;7.184;2023-02-28T11:19:54;2.97;;;1.60;;
46607;SDS011;32330;51.936;7.184;2023-02-28T11:22:24;1.90;;;1.15;;
46607;SDS011;32330;51.936;7.184;2023-02-28T11:24:55;3.35;;;1.10;;
46607;SDS011;32330;51.936;7.184;2023-02-28T11:27:26;1.90;;;1.20;;
46607;SDS011;32330;51.936;7.184;2023-02-28T11:30:25;2.42;;;1.17;;
46607;SDS011;32330;51.936;7.184;2023-02-28T11:33:00;2.13;;;1.00;;
46607;SDS011;32330;51.936;7.184;2023-02-28T11:35:29;2.95;;;1.48;;
46607;SDS011;32330;51.936;7.184;2023-02-28T11:37:59;2.78;;;1.35;;
46607;SDS011;32330;51.936;7.184;2023-02-28T11:40:29;2.17;;;1.15;;
46607;SDS011;32330;51.936;7.184;2023-02-28T11:43:08;2.42;;;1.30;;
46607;SDS011;32330;51.936;7.184;2023-02-28T11:45:53;1.95;;;1.20;;
46607;SDS011;32330;51.936;7.184;2023-02-28T11:48:31;2.55;;;1.13;;
46607;SDS011;32330;51.936;7.184;2023-02-28T11:51:07;5.38;;;1.65;;
46607;SDS011;32330;51.936;7.184;2023-02-28T11:53:57;3.55;;;1.42;;
46607;SDS011;32330;51.936;7.184;2023-02-28T11:56:38;1.77;;;1.38;;
46607;SDS011;32330;51.936;7.184;2023-02-28T11:59:26;2.50;;;1.38;;
46607;SDS011;32330;51.936;7.184;2023-02-28T12:02:05;2.50;;;1.50;;
46607;SDS011;32330;51.936;7.184;2023-02-28T12:04:52;2.60;;;1.30;;
46607;SDS011;32330;51.936;7.184;2023-02-28T12:07:30;2.35;;;1.15;;
46607;SDS011;32330;51.936;7.184;2023-02-28T12:10:03;5.22;;;1.38;;
46607;SDS011;32330;51.936;7.184;2023-02-28T12:12:38;3.97;;;2.00;;
46607;SDS011;32330;51.936;7.184;2023-02-28T12:15:22;3.63;;;1.50;;
46607;SDS011;32330;51.936;7.184;2023-02-28T12:17:59;2.65;;;1.50;;
46607;SDS011;32330;51.936;7.184;2023-02-28T12:20:41;2.08;;;1.30;;
46607;SDS011;32330;51.936;7.184;2023-02-28T12:26:12;1.88;;;1.35;;
46607;SDS011;32330;51.936;7.184;2023-02-28T12:28:47;6.80;;;1.33;;
46607;SDS011;32330;51.936;7.184;2023-02-28T12:31:20;3.38;;;1.40;;
46607;SDS011;32330;51.936;7.184;2023-02-28T12:33:51;2.10;;;1.13;;
46607;SDS011;32330;51.936;7.184;2023-02-28T12:36:21;4.22;;;1.70;;
46607;SDS011;32330;51.936;7.184;2023-02-28T12:38:52;3.00;;;1.45;;
46607;SDS011;32330;51.936;7.184;2023-02-28T12:41:22;2.20;;;1.27;;
46607;SDS011;32330;51.936;7.184;2023-02-28T12:43:57;2.40;;;1.20;;
46607;SDS011;32330;51.936;7.184;2023-02-28T12:46:33;3.33;;;1.20;;
46607;SDS011;32330;51.936;7.184;2023-02-28T12:49:06;2.95;;;1.50;;
46607;SDS011;32330;51.936;7.184;2023-02-28T12:51:36;1.75;;;1.15;;
46607;SDS011;32330;51.936;7.184;2023-02-28T12:54:07;2.03;;;1.38;;
46607;SDS011;32330;51.936;7.184;2023-02-28T12:56:44;2.08;;;1.33;;
46607;SDS011;32330;51.936;7.184;2023-02-28T12:59:19;2.35;;;1.35;;
46607;SDS011;32330;51.936;7.184;2023-02-28T13:08:11;2.83;;;1.02;;
46607;SDS011;32330;51.936;7.184;2023-02-28T13:10:52;2.63;;;1.27;;
46607;SDS011;32330;51.936;7.184;2023-02-28T13:13:21;2.20;;;1.48;;
46607;SDS011;32330;51.936;7.184;2023-02-28T13:15:59;2.15;;;1.02;;
46607;SDS011;32330;51.936;7.184;2023-02-28T13:18:30;1.73;;;1.05;;
46607;SDS011;32330;51.936;7.184;2023-02-28T13:21:04;2.92;;;1.42;;
46607;SDS011;32330;51.936;7.184;2023-02-28T13:23:37;3.40;;;1.38;;
46607;SDS011;32330;51.936;7.184;2023-02-28T13:29:30;2.92;;;2.03;;
46607;SDS011;32330;51.936;7.184;2023-02-28T13:34:47;3.85;;;2.30;;
46607;SDS011;32330;51.936;7.184;2023-02-28T13:38:01;3.13;;;1.23;;
46607;SDS011;32330;51.936;7.184;2023-02-28T13:40:43;3.03;;;1.50;;
46607;SDS011;32330;51.936;7.184;2023-02-28T13:43:10;3.67;;;1.60;;
46607;SDS011;32330;51.936;7.184;2023-02-28T13:45:37;3.05;;;1.58;;
46607;SDS011;32330;51.936;7.184;2023-02-28T13:48:05;3.88;;;1.80;;
46607;SDS011;32330;51.936;7.184;2023-02-28T13:50:43;2.70;;;1.60;;
46607;SDS011;32330;51.936;7.184;2023-02-28T13:53:24;3.70;;;1.63;;
46607;SDS011;32330;51.936;7.184;2023-02-28T13:56:07;3.22;;;1.63;;
46607;SDS011;32330;51.936;7.184;2023-02-28T13:58:49;3.78;;;1.83;;
46607;SDS011;32330;51.936;7.184;2023-02-28T14:01:23;2.38;;;1.40;;
46607;SDS011;32330;51.936;7.184;2023-02-28T14:07:16;4.68;;;1.77;;
46607;SDS011;32330;51.936;7.184;2023-02-28T14:09:49;3.35;;;1.83;;
46607;SDS011;32330;51.936;7.184;2023-02-28T14:18:27;4.15;;;1.70;;
46607;SDS011;32330;51.936;7.184;2023-02-28T14:21:01;2.65;;;1.40;;
46607;SDS011;32330;51.936;7.184;2023-02-28T14:23:55;2.42;;;1.55;;
46607;SDS011;32330;51.936;7.184;2023-02-28T14:26:58;4.25;;;1.70;;
46607;SDS011;32330;51.936;7.184;2023-02-28T14:32:33;4.57;;;1.60;;
46607;SDS011;32330;51.936;7.184;2023-02-28T14:35:13;3.47;;;1.67;;
46607;SDS011;32330;51.936;7.184;2023-02-28T14:37:51;3.72;;;2.25;;
46607;SDS011;32330;51.936;7.184;2023-02-28T14:40:21;3.42;;;1.67;;
46607;SDS011;32330;51.936;7.184;2023-02-28T14:42:58;2.50;;;1.95;;
46607;SDS011;32330;51.936;7.184;2023-02-28T14:45:27;2.92;;;1.55;;
46607;SDS011;32330;51.936;7.184;2023-02-28T14:47:58;2.40;;;1.60;;
46607;SDS011;32330;51.936;7.184;2023-02-28T14:50:30;2.78;;;1.52;;
46607;SDS011;32330;51.936;7.184;2023-02-28T14:52:58;2.15;;;1.58;;
46607;SDS011;32330;51.936;7.184;2023-02-28T14:55:26;3.03;;;1.77;;
46607;SDS011;32330;51.936;7.184;2023-02-28T14:58:06;2.38;;;1.50;;
46607;SDS011;32330;51.936;7.184;2023-02-28T15:00:46;3.17;;;1.40;;
46607;SDS011;32330;51.936;7.184;2023-02-28T15:03:17;2.47;;;1.60;;
46607;SDS011;32330;51.936;7.184;2023-02-28T15:05:52;3.00;;;1.67;;
46607;SDS011;32330;51.936;7.184;2023-02-28T15:08:20;2.70;;;2.00;;
46607;SDS011;32330;51.936;7.184;2023-02-28T15:10:50;2.38;;;1.48;;
46607;SDS011;32330;51.936;7.184;2023-02-28T15:13:21;2.80;;;1.80;;
46607;SDS011;32330;51.936;7.184;2023-02-28T15:15:51;4.25;;;1.63;;
46607;SDS011;32330;51.936;7.184;2023-02-28T15:18:23;2.72;;;1.45;;
46607;SDS011;32330;51.936;7.184;2023-02-28T15:20:56;4.47;;;1.80;;
46607;SDS011;32330;51.936;7.184;2023-02-28T15:23:28;3.78;;;2.25;;
46607;SDS011;32330;51.936;7.184;2023-02-28T15:25:56;2.45;;;1.67;;
46607;SDS011;32330;51.936;7.184;2023-02-28T15:28:26;4.38;;;1.90;;
46607;SDS011;32330;51.936;7.184;2023-02-28T15:31:00;3.00;;;1.83;;
46607;SDS011;32330;51.936;7.184;2023-02-28T15:33:32;2.67;;;1.92;;
46607;SDS011;32330;51.936;7.184;2023-02-28T15:36:03;2.55;;;1.55;;
46607;SDS011;32330;51.936;7.184;2023-02-28T15:38:38;3.00;;;1.73;;
46607;SDS011;32330;51.936;7.184;2023-02-28T15:41:05;3.08;;;1.70;;
46607;SDS011;32330;51.936;7.184;2023-02-28T15:46:53;3.70;;;1.83;;
46607;SDS011;32330;51.936;7.184;2023-02-28T15:49:23;2.42;;;1.60;;
46607;SDS011;32330;51.936;7.184;2023-02-28T15:51:53;2.88;;;1.52;;
46607;SDS011;32330;51.936;7.184;2023-02-28T15:54:24;3.42;;;1.52;;
46607;SDS011;32330;51.936;7.184;2023-02-28T15:56:55;3.83;;;1.77;;
46607;SDS011;32330;51.936;7.184;2023-02-28T15:59:25;2.85;;;2.05;;
46607;SDS011;32330;51.936;7.184;2023-02-28T16:02:17;2.45;;;1.48;;
46607;SDS011;32330;51.936;7.184;2023-02-28T16:04:56;2.00;;;1.33;;
46607;SDS011;32330;51.936;7.184;2023-02-28T16:07:25;2.30;;;1.55;;
46607;SDS011;32330;51.936;7.184;2023-02-28T16:09:52;3.53;;;1.70;;
46607;SDS011;32330;51.936;7.184;2023-02-28T16:12:20;3.92;;;2.03;;
46607;SDS011;32330;51.936;7.184;2023-02-28T16:14:52;2.85;;;1.83;;
46607;SDS011;32330;51.936;7.184;2023-02-28T16:17:20;1.88;;;1.45;;
46607;SDS011;32330;51.936;7.184;2023-02-28T16:19:49;2.55;;;1.77;;
46607;SDS011;32330;51.936;7.184;2023-02-28T16:22:16;4.70;;;2.28;;
46607;SDS011;32330;51.936;7.184;2023-02-28T16:24:43;3.17;;;2.10;;
46607;SDS011;32330;51.936;7.184;2023-02-28T16:27:14;4.05;;;1.95;;
46607;SDS011;32330;51.936;7.184;2023-02-28T16:29:47;2.25;;;1.50;;
46607;SDS011;32330;51.936;7.184;2023-02-28T16:32:16;3.33;;;1.88;;
46607;SDS011;32330;51.936;7.184;2023-02-28T16:34:43;3.55;;;1.92;;
46607;SDS011;32330;51.936;7.184;2023-02-28T16:37:14;3.63;;;2.28;;
46607;SDS011;32330;51.936;7.184;2023-02-28T16:39:45;3.13;;;2.03;;
46607;SDS011;32330;51.936;7.184;2023-02-28T16:42:15;4.50;;;2.17;;
46607;SDS011;32330;51.936;7.184;2023-02-28T16:44:47;2.55;;;2.05;;
46607;SDS011;32330;51.936;7.184;2023-02-28T16:47:16;2.58;;;1.90;;
46607;SDS011;32330;51.936;7.184;2023-02-28T16:49:45;6.25;;;2.15;;
46607;SDS011;32330;51.936;7.184;2023-02-28T16:52:13;3.72;;;2.30;;
46607;SDS011;32330;51.936;7.184;2023-02-28T16:54:40;3.20;;;2.22;;
46607;SDS011;32330;51.936;7.184;2023-02-28T16:57:14;3.85;;;2.80;;
46607;SDS011;32330;51.936;7.184;2023-02-28T16:59:55;3.10;;;2.25;;
46607;SDS011;32330;51.936;7.184;2023-02-28T17:02:23;6.30;;;2.85;;
46607;SDS011;32330;51.936;7.184;2023-02-28T17:04:50;4.07;;;2.88;;
46607;SDS011;32330;51.936;7.184;2023-02-28T17:07:18;3.83;;;2.83;;
46607;SDS011;32330;51.936;7.184;2023-02-28T17:09:45;5.00;;;2.75;;
46607;SDS011;32330;51.936;7.184;2023-02-28T17:12:12;4.28;;;3.00;;
46607;SDS011;32330;51.936;7.184;2023-02-28T17:14:39;3.58;;;2.55;;
46607;SDS011;32330;51.936;7.184;2023-02-28T17:17:06;4.40;;;2.60;;
46607;SDS011;32330;51.936;7.184;2023-02-28T17:19:37;4.22;;;2.13;;
46607;SDS011;32330;51.936;7.184;2023-02-28T17:22:08;4.72;;;2.70;;
46607;SDS011;32330;51.936;7.184;2023-02-28T17:24:35;4.40;;;2.65;;
46607;SDS011;32330;51.936;7.184;2023-02-28T17:27:02;3.72;;;2.78;;
46607;SDS011;32330;51.936;7.184;2023-02-28T17:29:30;5.55;;;3.70;;
46607;SDS011;32330;51.936;7.184;2023-02-28T17:31:57;3.83;;;2.63;;
46607;SDS011;32330;51.936;7.184;2023-02-28T17:34:23;4.68;;;2.72;;
46607;SDS011;32330;51.936;7.184;2023-02-28T17:36:52;4.80;;;2.75;;
46607;SDS011;32330;51.936;7.184;2023-02-28T17:39:19;4.57;;;3.65;;
46607;SDS011;32330;51.936;7.184;2023-02-28T17:41:49;6.85;;;4.25;;
46607;SDS011;32330;51.936;7.184;2023-02-28T17:44:19;9.35;;;6.13;;
46607;SDS011;32330;51.936;7.184;2023-02-28T17:46:48;13.38;;;8.80;;
46607;SDS011;32330;51.936;7.184;2023-02-28T17:49:18;16.25;;;10.48;;
46607;SDS011;32330;51.936;7.184;2023-02-28T17:51:53;16.52;;;9.27;;
46607;SDS011;32330;51.936;7.184;2023-02-28T17:54:20;16.00;;;8.70;;
46607;SDS011;32330;51.936;7.184;2023-02-28T17:56:48;18.55;;;10.20;;
46607;SDS011;32330;51.936;7.184;2023-02-28T17:59:15;19.80;;;11.10;;
46607;SDS011;32330;51.936;7.184;2023-02-28T18:01:41;16.92;;;9.82;;
46607;SDS011;32330;51.936;7.184;2023-02-28T18:04:11;15.48;;;9.18;;
46607;SDS011;32330;51.936;7.184;2023-02-28T18:06:41;11.57;;;7.93;;
46607;SDS011;32330;51.936;7.184;2023-02-28T18:09:17;10.88;;;7.18;;
46607;SDS011;32330;51.936;7.184;2023-02-28T18:11:53;9.55;;;7.32;;
46607;SDS011;32330;51.936;7.184;2023-02-28T18:14:22;7.47;;;6.00;;
46607;SDS011;32330;51.936;7.184;2023-02-28T18:16:51;8.07;;;5.22;;
46607;SDS011;32330;51.936;7.184;2023-02-28T18:19:18;7.07;;;4.50;;
46607;SDS011;32330;51.936;7.184;2023-02-28T18:21:46;4.97;;;3.30;;
46607;SDS011;32330;51.936;7.184;2023-02-28T18:24:18;5.38;;;3.58;;
46607;SDS011;32330;51.936;7.184;2023-02-28T18:26:46;4.38;;;3.70;;
46607;SDS011;32330;51.936;7.184;2023-02-28T18:29:15;6.57;;;3.75;;
46607;SDS011;32330;51.936;7.184;2023-02-28T18:31:46;5.70;;;3.65;;
46607;SDS011;32330;51.936;7.184;2023-02-28T18:34:16;6.25;;;3.83;;
46607;SDS011;32330;51.936;7.184;2023-02-28T18:36:43;5.63;;;4.40;;
46607;SDS011;32330;51.936;7.184;2023-02-28T18:39:14;7.80;;;4.00;;
46607;SDS011;32330;51.936;7.184;2023-02-28T18:41:46;6.35;;;4.70;;
46607;SDS011;32330;51.936;7.184;2023-02-28T18:44:13;8.50;;;5.75;;
46607;SDS011;32330;51.936;7.184;2023-02-28T18:46:41;8.90;;;5.50;;
46607;SDS011;32330;51.936;7.184;2023-02-28T18:49:08;6.90;;;5.55;;
46607;SDS011;32330;51.936;7.184;2023-02-28T18:51:35;18.98;;;8.20;;
46607;SDS011;32330;51.936;7.184;2023-02-28T18:54:02;19.58;;;9.05;;
46607;SDS011;32330;51.936;7.184;2023-02-28T18:56:29;15.95;;;8.30;;
46607;SDS011;32330;51.936;7.184;2023-02-28T18:59:00;16.10;;;9.18;;
46607;SDS011;32330;51.936;7.184;2023-02-28T19:01:27;21.02;;;11.23;;
46607;SDS011;32330;51.936;7.184;2023-02-28T19:03:59;10.63;;;7.03;;
46607;SDS011;32330;51.936;7.184;2023-02-28T19:06:27;8.95;;;6.32;;
46607;SDS011;32330;51.936;7.184;2023-02-28T19:08:56;7.10;;;5.68;;
46607;SDS011;32330;51.936;7.184;2023-02-28T19:11:27;6.75;;;5.38;;
46607;SDS011;32330;51.936;7.184;2023-02-28T19:13:54;7.15;;;5.05;;
46607;SDS011;32330;51.936;7.184;2023-02-28T19:16:23;7.60;;;4.78;;
46607;SDS011;32330;51.936;7.184;2023-02-28T19:18:51;6.53;;;5.20;;
46607;SDS011;32330;51.936;7.184;2023-02-28T19:21:20;5.75;;;4.38;;
46607;SDS011;32330;51.936;7.184;2023-02-28T19:23:48;6.43;;;4.30;;
46607;SDS011;32330;51.936;7.184;2023-02-28T19:26:18;7.75;;;5.15;;
46607;SDS011;32330;51.936;7.184;2023-02-28T19:28:46;6.03;;;4.63;;
46607;SDS011;32330;51.936;7.184;2023-02-28T19:31:14;7.32;;;5.03;;
46607;SDS011;32330;51.936;7.184;2023-02-28T19:33:44;8.15;;;5.68;;
46607;SDS011;32330;51.936;7.184;2023-02-28T19:36:11;6.10;;;4.32;;
46607;SDS011;32330;51.936;7.184;2023-02-28T19:38:39;6.07;;;4.63;;
46607;SDS011;32330;51.936;7.184;2023-02-28T19:41:09;6.93;;;4.60;;
46607;SDS011;32330;51.936;7.184;2023-02-28T19:43:37;6.82;;;5.25;;
46607;SDS011;32330;51.936;7.184;2023-02-28T19:46:04;6.05;;;4.68;;
46607;SDS011;32330;51.936;7.184;2023-02-28T19:48:33;6.10;;;4.63;;
46607;SDS011;32330;51.936;7.184;2023-02-28T19:51:02;8.05;;;5.25;;
46607;SDS011;32330;51.936;7.184;2023-02-28T19:53:32;7.18;;;5.57;;
46607;SDS011;32330;51.936;7.184;2023-02-28T19:56:00;9.38;;;6.55;;
46607;SDS011;32330;51.936;7.184;2023-02-28T19:58:28;6.28;;;5.32;;
46607;SDS011;32330;51.936;7.184;2023-02-28T20:00:55;7.43;;;6.07;;
46607;SDS011;32330;51.936;7.184;2023-02-28T20:03:25;7.00;;;5.90;;
46607;SDS011;32330;51.936;7.184;2023-02-28T20:05:58;9.32;;;6.63;;
46607;SDS011;32330;51.936;7.184;2023-02-28T20:08:27;5.55;;;4.38;;
46607;SDS011;32330;51.936;7.184;2023-02-28T20:10:54;6.47;;;5.47;;
46607;SDS011;32330;51.936;7.184;2023-02-28T20:13:27;7.63;;;6.35;;
46607;SDS011;32330;51.936;7.184;2023-02-28T20:15:57;10.05;;;7.13;;
46607;SDS011;32330;51.936;7.184;2023-02-28T20:18:25;7.55;;;5.68;;
46607;SDS011;32330;51.936;7.184;2023-02-28T20:20:52;7.55;;;6.25;;
46607;SDS011;32330;51.936;7.184;2023-02-28T20:23:19;8.15;;;6.68;;
46607;SDS011;32330;51.936;7.184;2023-02-28T20:25:47;6.70;;;5.60;;
46607;SDS011;32330;51.936;7.184;2023-02-28T20:28:15;7.00;;;5.95;;
46607;SDS011;32330;51.936;7.184;2023-02-28T20:30:42;5.90;;;5.30;;
46607;SDS011;32330;51.936;7.184;2023-02-28T20:33:10;7.63;;;5.72;;
46607;SDS011;32330;51.936;7.184;2023-02-28T20:35:36;8.20;;;6.28;;